Terminal Aerodrome Forecast
Issued by NWS

Home | Current Version | Previous Version | Text Only | Print | Product List | Glossary On
Versions: 1 2 3 4 5 6 7 8 9 10 11 12 13 14 15 16
000
FTUS44 KSJT 291700
TAFSOA
TAF
KSOA 291738Z 2918/3018 18011KT P6SM SCT070
     FM300300 14006KT P6SM BKN250 PROB30 3003/3006 P6SM TS BKN050CB=

USA.gov is the U.S. government's official web portal to all federal, state and local government web resources and services.